sensor_id;sensor_type;location;lat;lon;timestamp;P1;durP1;ratioP1;P2;durP2;ratioP2
80567;SDS011;69922;45.656;25.586;2023-07-29T00:00:41;7.20;;;4.30;;
80567;SDS011;69922;45.656;25.586;2023-07-29T00:02:04;8.20;;;4.40;;
80567;SDS011;69922;45.656;25.586;2023-07-29T00:03:10;7.70;;;4.40;;
80567;SDS011;69922;45.656;25.586;2023-07-29T00:04:16;5.40;;;3.90;;
80567;SDS011;69922;45.656;25.586;2023-07-29T00:05:23;6.50;;;4.50;;
80567;SDS011;69922;45.656;25.586;2023-07-29T00:06:29;8.10;;;4.10;;
80567;SDS011;69922;45.656;25.586;2023-07-29T00:07:35;7.90;;;4.90;;
80567;SDS011;69922;45.656;25.586;2023-07-29T00:08:41;5.10;;;4.20;;
80567;SDS011;69922;45.656;25.586;2023-07-29T00:09:47;6.80;;;4.30;;
80567;SDS011;69922;45.656;25.586;2023-07-29T00:10:53;6.40;;;4.40;;
80567;SDS011;69922;45.656;25.586;2023-07-29T00:11:59;6.40;;;4.90;;
80567;SDS011;69922;45.656;25.586;2023-07-29T00:13:05;7.00;;;4.70;;
80567;SDS011;69922;45.656;25.586;2023-07-29T00:14:12;7.60;;;4.90;;
80567;SDS011;69922;45.656;25.586;2023-07-29T00:15:17;7.30;;;5.30;;
80567;SDS011;69922;45.656;25.586;2023-07-29T00:16:24;6.20;;;4.50;;
80567;SDS011;69922;45.656;25.586;2023-07-29T00:17:30;8.50;;;5.00;;
80567;SDS011;69922;45.656;25.586;2023-07-29T00:18:37;6.60;;;4.70;;
80567;SDS011;69922;45.656;25.586;2023-07-29T00:19:42;8.10;;;5.30;;
80567;SDS011;69922;45.656;25.586;2023-07-29T00:20:50;6.60;;;4.50;;
80567;SDS011;69922;45.656;25.586;2023-07-29T00:21:56;11.30;;;4.40;;
80567;SDS011;69922;45.656;25.586;2023-07-29T00:23:03;7.40;;;4.90;;
80567;SDS011;69922;45.656;25.586;2023-07-29T00:24:10;6.80;;;5.00;;
80567;SDS011;69922;45.656;25.586;2023-07-29T00:25:16;6.80;;;4.60;;
80567;SDS011;69922;45.656;25.586;2023-07-29T00:26:23;7.20;;;4.80;;
80567;SDS011;69922;45.656;25.586;2023-07-29T00:27:30;7.10;;;4.40;;
80567;SDS011;69922;45.656;25.586;2023-07-29T00:28:37;10.20;;;5.30;;
80567;SDS011;69922;45.656;25.586;2023-07-29T00:29:44;6.90;;;4.40;;
80567;SDS011;69922;45.656;25.586;2023-07-29T00:30:51;5.20;;;4.00;;
80567;SDS011;69922;45.656;25.586;2023-07-29T00:31:57;6.00;;;4.40;;
80567;SDS011;69922;45.656;25.586;2023-07-29T00:33:04;3.90;;;3.50;;
80567;SDS011;69922;45.656;25.586;2023-07-29T00:34:10;5.50;;;3.60;;
80567;SDS011;69922;45.656;25.586;2023-07-29T00:35:22;7.50;;;4.10;;
80567;SDS011;69922;45.656;25.586;2023-07-29T00:36:28;6.60;;;4.00;;
80567;SDS011;69922;45.656;25.586;2023-07-29T00:37:34;4.80;;;3.40;;
80567;SDS011;69922;45.656;25.586;2023-07-29T00:38:42;4.70;;;3.80;;
80567;SDS011;69922;45.656;25.586;2023-07-29T00:39:48;5.00;;;3.80;;
80567;SDS011;69922;45.656;25.586;2023-07-29T00:40:55;5.40;;;3.80;;
80567;SDS011;69922;45.656;25.586;2023-07-29T00:42:06;5.40;;;4.40;;
80567;SDS011;69922;45.656;25.586;2023-07-29T00:43:12;6.40;;;3.60;;
80567;SDS011;69922;45.656;25.586;2023-07-29T00:44:18;4.10;;;3.70;;
80567;SDS011;69922;45.656;25.586;2023-07-29T00:45:25;5.20;;;3.50;;
80567;SDS011;69922;45.656;25.586;2023-07-29T00:46:33;4.10;;;3.50;;
80567;SDS011;69922;45.656;25.586;2023-07-29T00:47:42;6.40;;;3.50;;
80567;SDS011;69922;45.656;25.586;2023-07-29T00:48:49;5.20;;;3.60;;
80567;SDS011;69922;45.656;25.586;2023-07-29T00:49:56;5.00;;;4.00;;
80567;SDS011;69922;45.656;25.586;2023-07-29T00:51:03;4.30;;;3.40;;
80567;SDS011;69922;45.656;25.586;2023-07-29T00:52:09;6.50;;;3.60;;
80567;SDS011;69922;45.656;25.586;2023-07-29T00:53:16;5.60;;;4.20;;
80567;SDS011;69922;45.656;25.586;2023-07-29T00:54:23;5.60;;;4.30;;
80567;SDS011;69922;45.656;25.586;2023-07-29T00:55:30;6.10;;;3.70;;
80567;SDS011;69922;45.656;25.586;2023-07-29T00:56:36;4.60;;;3.50;;
80567;SDS011;69922;45.656;25.586;2023-07-29T00:57:43;8.70;;;4.10;;
80567;SDS011;69922;45.656;25.586;2023-07-29T00:58:52;6.30;;;3.60;;
80567;SDS011;69922;45.656;25.586;2023-07-29T01:00:03;5.20;;;3.90;;
80567;SDS011;69922;45.656;25.586;2023-07-29T01:01:12;4.70;;;3.30;;
80567;SDS011;69922;45.656;25.586;2023-07-29T01:02:18;5.10;;;3.70;;
80567;SDS011;69922;45.656;25.586;2023-07-29T01:03:25;4.60;;;3.00;;
80567;SDS011;69922;45.656;25.586;2023-07-29T01:04:32;4.50;;;3.40;;
80567;SDS011;69922;45.656;25.586;2023-07-29T01:05:39;5.20;;;3.30;;
80567;SDS011;69922;45.656;25.586;2023-07-29T01:06:57;4.90;;;3.50;;
80567;SDS011;69922;45.656;25.586;2023-07-29T01:08:09;4.70;;;3.50;;
80567;SDS011;69922;45.656;25.586;2023-07-29T01:09:25;4.70;;;3.40;;
80567;SDS011;69922;45.656;25.586;2023-07-29T01:10:47;4.10;;;3.60;;
80567;SDS011;69922;45.656;25.586;2023-07-29T01:12:04;5.30;;;3.30;;
80567;SDS011;69922;45.656;25.586;2023-07-29T01:13:19;5.40;;;4.00;;
80567;SDS011;69922;45.656;25.586;2023-07-29T01:14:34;9.20;;;4.10;;
80567;SDS011;69922;45.656;25.586;2023-07-29T01:15:48;4.50;;;3.80;;
80567;SDS011;69922;45.656;25.586;2023-07-29T01:17:00;5.00;;;3.50;;
80567;SDS011;69922;45.656;25.586;2023-07-29T01:18:11;4.60;;;3.80;;
80567;SDS011;69922;45.656;25.586;2023-07-29T01:19:29;5.10;;;3.40;;
80567;SDS011;69922;45.656;25.586;2023-07-29T01:20:47;5.50;;;3.70;;
80567;SDS011;69922;45.656;25.586;2023-07-29T01:21:57;5.20;;;3.30;;
80567;SDS011;69922;45.656;25.586;2023-07-29T01:23:06;3.80;;;3.00;;
80567;SDS011;69922;45.656;25.586;2023-07-29T01:24:12;4.80;;;4.10;;
80567;SDS011;69922;45.656;25.586;2023-07-29T01:25:18;6.30;;;3.90;;
80567;SDS011;69922;45.656;25.586;2023-07-29T01:26:24;5.70;;;4.00;;
80567;SDS011;69922;45.656;25.586;2023-07-29T01:27:33;6.10;;;3.70;;
80567;SDS011;69922;45.656;25.586;2023-07-29T01:28:39;6.70;;;3.70;;
80567;SDS011;69922;45.656;25.586;2023-07-29T01:29:45;5.50;;;3.70;;
80567;SDS011;69922;45.656;25.586;2023-07-29T01:30:57;6.90;;;4.00;;
80567;SDS011;69922;45.656;25.586;2023-07-29T01:32:09;5.30;;;3.40;;
80567;SDS011;69922;45.656;25.586;2023-07-29T01:33:20;4.00;;;3.20;;
80567;SDS011;69922;45.656;25.586;2023-07-29T01:34:32;9.30;;;3.50;;
80567;SDS011;69922;45.656;25.586;2023-07-29T01:35:46;5.30;;;3.80;;
80567;SDS011;69922;45.656;25.586;2023-07-29T01:36:56;3.60;;;3.30;;
80567;SDS011;69922;45.656;25.586;2023-07-29T01:38:06;6.20;;;3.70;;
80567;SDS011;69922;45.656;25.586;2023-07-29T01:39:18;4.10;;;3.30;;
80567;SDS011;69922;45.656;25.586;2023-07-29T01:40:31;4.40;;;3.50;;
80567;SDS011;69922;45.656;25.586;2023-07-29T01:41:38;5.90;;;3.70;;
80567;SDS011;69922;45.656;25.586;2023-07-29T01:42:45;6.60;;;4.00;;
80567;SDS011;69922;45.656;25.586;2023-07-29T01:43:53;6.30;;;3.80;;
80567;SDS011;69922;45.656;25.586;2023-07-29T01:45:00;6.70;;;4.20;;
80567;SDS011;69922;45.656;25.586;2023-07-29T01:46:08;5.70;;;4.00;;
80567;SDS011;69922;45.656;25.586;2023-07-29T01:47:18;7.30;;;4.10;;
80567;SDS011;69922;45.656;25.586;2023-07-29T01:48:25;8.20;;;3.90;;
80567;SDS011;69922;45.656;25.586;2023-07-29T01:49:34;6.70;;;3.50;;
80567;SDS011;69922;45.656;25.586;2023-07-29T01:50:42;5.50;;;3.60;;
80567;SDS011;69922;45.656;25.586;2023-07-29T01:51:48;5.00;;;4.20;;
80567;SDS011;69922;45.656;25.586;2023-07-29T01:52:55;7.40;;;4.40;;
80567;SDS011;69922;45.656;25.586;2023-07-29T01:54:01;6.70;;;4.40;;
80567;SDS011;69922;45.656;25.586;2023-07-29T01:55:09;5.80;;;4.60;;
80567;SDS011;69922;45.656;25.586;2023-07-29T01:56:15;5.80;;;4.30;;
80567;SDS011;69922;45.656;25.586;2023-07-29T01:57:21;7.30;;;4.70;;
80567;SDS011;69922;45.656;25.586;2023-07-29T01:58:27;6.30;;;5.00;;
80567;SDS011;69922;45.656;25.586;2023-07-29T01:59:34;5.50;;;4.50;;
80567;SDS011;69922;45.656;25.586;2023-07-29T02:00:40;7.20;;;4.40;;
80567;SDS011;69922;45.656;25.586;2023-07-29T02:01:46;8.80;;;4.60;;
80567;SDS011;69922;45.656;25.586;2023-07-29T02:02:52;6.80;;;4.10;;
80567;SDS011;69922;45.656;25.586;2023-07-29T02:04:00;5.60;;;4.10;;
80567;SDS011;69922;45.656;25.586;2023-07-29T02:05:07;7.10;;;4.20;;
80567;SDS011;69922;45.656;25.586;2023-07-29T02:06:13;8.00;;;3.90;;
80567;SDS011;69922;45.656;25.586;2023-07-29T02:07:19;5.40;;;4.50;;
80567;SDS011;69922;45.656;25.586;2023-07-29T02:08:27;7.60;;;5.00;;
80567;SDS011;69922;45.656;25.586;2023-07-29T02:09:34;8.00;;;5.10;;
80567;SDS011;69922;45.656;25.586;2023-07-29T02:10:41;9.90;;;4.50;;
80567;SDS011;69922;45.656;25.586;2023-07-29T02:11:50;7.90;;;4.70;;
80567;SDS011;69922;45.656;25.586;2023-07-29T02:12:56;6.90;;;4.70;;
80567;SDS011;69922;45.656;25.586;2023-07-29T02:14:03;8.90;;;4.50;;
80567;SDS011;69922;45.656;25.586;2023-07-29T02:15:09;7.70;;;4.20;;
80567;SDS011;69922;45.656;25.586;2023-07-29T02:16:16;6.30;;;3.70;;
80567;SDS011;69922;45.656;25.586;2023-07-29T02:17:22;5.80;;;4.20;;
80567;SDS011;69922;45.656;25.586;2023-07-29T02:18:28;6.30;;;3.70;;
80567;SDS011;69922;45.656;25.586;2023-07-29T02:19:34;5.60;;;4.40;;
80567;SDS011;69922;45.656;25.586;2023-07-29T02:20:40;5.60;;;3.90;;
80567;SDS011;69922;45.656;25.586;2023-07-29T02:21:56;5.60;;;4.10;;
80567;SDS011;69922;45.656;25.586;2023-07-29T02:23:02;5.30;;;3.60;;
80567;SDS011;69922;45.656;25.586;2023-07-29T02:24:08;5.60;;;3.80;;
80567;SDS011;69922;45.656;25.586;2023-07-29T02:25:15;5.40;;;3.80;;
80567;SDS011;69922;45.656;25.586;2023-07-29T02:26:21;4.80;;;3.60;;
80567;SDS011;69922;45.656;25.586;2023-07-29T02:27:28;6.00;;;3.80;;
80567;SDS011;69922;45.656;25.586;2023-07-29T02:28:34;3.90;;;3.30;;
80567;SDS011;69922;45.656;25.586;2023-07-29T02:29:40;3.70;;;3.30;;
80567;SDS011;69922;45.656;25.586;2023-07-29T02:30:46;4.50;;;3.10;;
80567;SDS011;69922;45.656;25.586;2023-07-29T02:32:13;6.00;;;4.30;;
80567;SDS011;69922;45.656;25.586;2023-07-29T02:33:19;5.70;;;3.80;;
80567;SDS011;69922;45.656;25.586;2023-07-29T02:34:25;4.00;;;3.30;;
80567;SDS011;69922;45.656;25.586;2023-07-29T02:35:32;5.00;;;3.30;;
80567;SDS011;69922;45.656;25.586;2023-07-29T02:36:39;4.30;;;3.30;;
80567;SDS011;69922;45.656;25.586;2023-07-29T02:37:45;5.00;;;3.00;;
80567;SDS011;69922;45.656;25.586;2023-07-29T02:38:51;4.60;;;3.50;;
80567;SDS011;69922;45.656;25.586;2023-07-29T02:39:57;4.50;;;3.40;;
80567;SDS011;69922;45.656;25.586;2023-07-29T02:41:03;4.70;;;3.40;;
80567;SDS011;69922;45.656;25.586;2023-07-29T02:42:11;4.20;;;3.30;;
80567;SDS011;69922;45.656;25.586;2023-07-29T02:43:17;3.80;;;2.90;;
80567;SDS011;69922;45.656;25.586;2023-07-29T02:44:24;4.50;;;3.20;;
80567;SDS011;69922;45.656;25.586;2023-07-29T02:45:30;4.80;;;3.70;;
80567;SDS011;69922;45.656;25.586;2023-07-29T02:46:36;4.80;;;3.00;;
80567;SDS011;69922;45.656;25.586;2023-07-29T02:47:43;3.90;;;2.90;;
80567;SDS011;69922;45.656;25.586;2023-07-29T02:48:50;5.10;;;3.20;;
80567;SDS011;69922;45.656;25.586;2023-07-29T02:49:56;5.20;;;3.00;;
80567;SDS011;69922;45.656;25.586;2023-07-29T02:51:03;6.00;;;2.80;;
80567;SDS011;69922;45.656;25.586;2023-07-29T02:52:09;4.90;;;3.30;;
80567;SDS011;69922;45.656;25.586;2023-07-29T02:53:15;3.60;;;2.90;;
80567;SDS011;69922;45.656;25.586;2023-07-29T02:54:21;4.20;;;3.60;;
80567;SDS011;69922;45.656;25.586;2023-07-29T02:55:27;5.10;;;3.00;;
80567;SDS011;69922;45.656;25.586;2023-07-29T02:56:34;4.30;;;3.60;;
80567;SDS011;69922;45.656;25.586;2023-07-29T02:57:40;4.60;;;3.10;;
80567;SDS011;69922;45.656;25.586;2023-07-29T02:58:46;4.20;;;3.20;;
80567;SDS011;69922;45.656;25.586;2023-07-29T02:59:53;4.30;;;3.20;;
80567;SDS011;69922;45.656;25.586;2023-07-29T03:01:02;3.80;;;2.80;;
80567;SDS011;69922;45.656;25.586;2023-07-29T03:02:09;4.00;;;2.80;;
80567;SDS011;69922;45.656;25.586;2023-07-29T03:03:15;4.20;;;2.80;;
80567;SDS011;69922;45.656;25.586;2023-07-29T03:04:23;5.30;;;3.10;;
80567;SDS011;69922;45.656;25.586;2023-07-29T03:05:29;4.60;;;2.90;;
80567;SDS011;69922;45.656;25.586;2023-07-29T03:06:37;4.50;;;3.40;;
80567;SDS011;69922;45.656;25.586;2023-07-29T03:07:43;4.90;;;3.10;;
80567;SDS011;69922;45.656;25.586;2023-07-29T03:08:49;5.40;;;3.10;;
80567;SDS011;69922;45.656;25.586;2023-07-29T03:09:55;5.60;;;3.10;;
80567;SDS011;69922;45.656;25.586;2023-07-29T03:11:06;6.30;;;3.60;;
80567;SDS011;69922;45.656;25.586;2023-07-29T03:12:14;4.90;;;3.10;;
80567;SDS011;69922;45.656;25.586;2023-07-29T03:13:20;4.00;;;2.60;;
80567;SDS011;69922;45.656;25.586;2023-07-29T03:14:27;4.80;;;2.70;;
80567;SDS011;69922;45.656;25.586;2023-07-29T03:15:33;4.50;;;3.00;;
80567;SDS011;69922;45.656;25.586;2023-07-29T03:16:39;5.50;;;2.40;;
80567;SDS011;69922;45.656;25.586;2023-07-29T03:17:46;6.00;;;3.40;;
80567;SDS011;69922;45.656;25.586;2023-07-29T03:18:52;3.70;;;2.50;;
80567;SDS011;69922;45.656;25.586;2023-07-29T03:19:58;6.60;;;2.80;;
80567;SDS011;69922;45.656;25.586;2023-07-29T03:21:12;8.80;;;3.40;;
80567;SDS011;69922;45.656;25.586;2023-07-29T03:22:18;3.70;;;2.80;;
80567;SDS011;69922;45.656;25.586;2023-07-29T03:23:24;4.00;;;3.10;;
80567;SDS011;69922;45.656;25.586;2023-07-29T03:24:32;6.50;;;3.10;;
80567;SDS011;69922;45.656;25.586;2023-07-29T03:25:38;3.50;;;2.90;;
80567;SDS011;69922;45.656;25.586;2023-07-29T03:26:44;7.20;;;3.30;;
80567;SDS011;69922;45.656;25.586;2023-07-29T03:27:50;5.10;;;3.00;;
80567;SDS011;69922;45.656;25.586;2023-07-29T03:28:56;5.10;;;2.70;;
80567;SDS011;69922;45.656;25.586;2023-07-29T03:30:02;7.10;;;3.20;;
80567;SDS011;69922;45.656;25.586;2023-07-29T03:31:10;5.00;;;3.20;;
80567;SDS011;69922;45.656;25.586;2023-07-29T03:32:16;3.90;;;2.40;;
80567;SDS011;69922;45.656;25.586;2023-07-29T03:33:22;5.60;;;2.80;;
80567;SDS011;69922;45.656;25.586;2023-07-29T03:34:29;3.90;;;2.70;;
80567;SDS011;69922;45.656;25.586;2023-07-29T03:35:36;3.10;;;2.60;;
80567;SDS011;69922;45.656;25.586;2023-07-29T03:36:42;4.20;;;2.90;;
80567;SDS011;69922;45.656;25.586;2023-07-29T03:37:50;3.50;;;2.80;;
80567;SDS011;69922;45.656;25.586;2023-07-29T03:38:56;5.50;;;2.90;;
80567;SDS011;69922;45.656;25.586;2023-07-29T03:40:03;3.30;;;2.40;;
80567;SDS011;69922;45.656;25.586;2023-07-29T03:41:13;4.60;;;3.00;;
80567;SDS011;69922;45.656;25.586;2023-07-29T03:42:19;4.90;;;3.10;;
80567;SDS011;69922;45.656;25.586;2023-07-29T03:43:25;5.40;;;3.50;;
80567;SDS011;69922;45.656;25.586;2023-07-29T03:44:31;3.60;;;2.90;;
80567;SDS011;69922;45.656;25.586;2023-07-29T03:45:38;4.10;;;3.20;;
80567;SDS011;69922;45.656;25.586;2023-07-29T03:46:45;4.00;;;2.90;;
80567;SDS011;69922;45.656;25.586;2023-07-29T03:47:52;4.40;;;3.30;;
80567;SDS011;69922;45.656;25.586;2023-07-29T03:48:58;3.60;;;2.50;;
80567;SDS011;69922;45.656;25.586;2023-07-29T03:50:05;3.90;;;2.60;;
80567;SDS011;69922;45.656;25.586;2023-07-29T03:51:18;4.20;;;3.40;;
80567;SDS011;69922;45.656;25.586;2023-07-29T03:52:25;5.30;;;2.90;;
80567;SDS011;69922;45.656;25.586;2023-07-29T03:53:32;5.10;;;3.10;;
80567;SDS011;69922;45.656;25.586;2023-07-29T03:54:38;5.20;;;3.20;;
80567;SDS011;69922;45.656;25.586;2023-07-29T03:55:44;5.80;;;3.30;;
80567;SDS011;69922;45.656;25.586;2023-07-29T03:56:51;4.40;;;3.40;;
80567;SDS011;69922;45.656;25.586;2023-07-29T03:57:57;6.60;;;3.80;;
80567;SDS011;69922;45.656;25.586;2023-07-29T03:59:04;5.60;;;3.50;;
80567;SDS011;69922;45.656;25.586;2023-07-29T04:00:11;7.60;;;4.00;;
80567;SDS011;69922;45.656;25.586;2023-07-29T04:01:17;5.00;;;3.40;;
80567;SDS011;69922;45.656;25.586;2023-07-29T04:02:23;4.70;;;3.60;;
80567;SDS011;69922;45.656;25.586;2023-07-29T04:03:30;5.40;;;3.70;;
80567;SDS011;69922;45.656;25.586;2023-07-29T04:04:37;5.80;;;3.70;;
80567;SDS011;69922;45.656;25.586;2023-07-29T04:05:46;5.50;;;3.80;;
80567;SDS011;69922;45.656;25.586;2023-07-29T04:06:52;8.60;;;3.90;;
80567;SDS011;69922;45.656;25.586;2023-07-29T04:07:58;7.10;;;4.40;;
80567;SDS011;69922;45.656;25.586;2023-07-29T04:09:04;5.50;;;4.20;;
80567;SDS011;69922;45.656;25.586;2023-07-29T04:10:10;5.50;;;4.00;;
80567;SDS011;69922;45.656;25.586;2023-07-29T04:11:17;6.30;;;3.80;;
80567;SDS011;69922;45.656;25.586;2023-07-29T04:12:24;5.30;;;4.40;;
80567;SDS011;69922;45.656;25.586;2023-07-29T04:13:30;5.90;;;4.10;;
80567;SDS011;69922;45.656;25.586;2023-07-29T04:14:36;6.30;;;4.00;;
80567;SDS011;69922;45.656;25.586;2023-07-29T04:15:42;5.60;;;3.80;;
80567;SDS011;69922;45.656;25.586;2023-07-29T04:16:49;6.00;;;4.50;;
80567;SDS011;69922;45.656;25.586;2023-07-29T04:17:54;5.70;;;3.90;;
80567;SDS011;69922;45.656;25.586;2023-07-29T04:19:01;5.80;;;3.80;;
80567;SDS011;69922;45.656;25.586;2023-07-29T04:20:09;7.20;;;4.20;;
80567;SDS011;69922;45.656;25.586;2023-07-29T04:21:16;5.30;;;3.90;;
80567;SDS011;69922;45.656;25.586;2023-07-29T04:22:24;5.60;;;3.60;;
80567;SDS011;69922;45.656;25.586;2023-07-29T04:23:31;5.90;;;3.50;;
80567;SDS011;69922;45.656;25.586;2023-07-29T04:24:38;5.90;;;3.60;;
80567;SDS011;69922;45.656;25.586;2023-07-29T04:25:44;7.20;;;4.40;;
80567;SDS011;69922;45.656;25.586;2023-07-29T04:26:50;8.30;;;4.40;;
80567;SDS011;69922;45.656;25.586;2023-07-29T04:27:57;6.60;;;4.60;;
80567;SDS011;69922;45.656;25.586;2023-07-29T04:29:05;6.80;;;4.40;;
80567;SDS011;69922;45.656;25.586;2023-07-29T04:30:12;8.50;;;4.10;;
80567;SDS011;69922;45.656;25.586;2023-07-29T04:31:18;6.40;;;3.90;;
80567;SDS011;69922;45.656;25.586;2023-07-29T04:32:25;6.20;;;4.60;;
80567;SDS011;69922;45.656;25.586;2023-07-29T04:33:31;5.20;;;4.40;;
80567;SDS011;69922;45.656;25.586;2023-07-29T04:34:41;5.50;;;4.10;;
80567;SDS011;69922;45.656;25.586;2023-07-29T04:35:47;7.40;;;4.20;;
80567;SDS011;69922;45.656;25.586;2023-07-29T04:36:54;5.30;;;4.40;;
80567;SDS011;69922;45.656;25.586;2023-07-29T04:38:00;5.40;;;4.50;;
80567;SDS011;69922;45.656;25.586;2023-07-29T04:39:06;6.40;;;4.50;;
80567;SDS011;69922;45.656;25.586;2023-07-29T04:40:14;6.30;;;4.70;;
80567;SDS011;69922;45.656;25.586;2023-07-29T04:41:20;7.50;;;4.30;;
80567;SDS011;69922;45.656;25.586;2023-07-29T04:42:26;6.40;;;4.30;;
80567;SDS011;69922;45.656;25.586;2023-07-29T04:43:32;4.90;;;3.90;;
80567;SDS011;69922;45.656;25.586;2023-07-29T04:44:38;6.70;;;4.40;;
80567;SDS011;69922;45.656;25.586;2023-07-29T04:45:47;5.60;;;4.30;;
80567;SDS011;69922;45.656;25.586;2023-07-29T04:46:53;5.50;;;4.40;;
80567;SDS011;69922;45.656;25.586;2023-07-29T04:48:00;7.00;;;4.30;;
80567;SDS011;69922;45.656;25.586;2023-07-29T04:49:07;7.40;;;4.50;;
80567;SDS011;69922;45.656;25.586;2023-07-29T04:50:15;7.20;;;4.50;;
80567;SDS011;69922;45.656;25.586;2023-07-29T04:51:22;5.90;;;4.30;;
80567;SDS011;69922;45.656;25.586;2023-07-29T04:52:29;5.30;;;4.50;;
80567;SDS011;69922;45.656;25.586;2023-07-29T04:53:35;7.40;;;4.40;;
80567;SDS011;69922;45.656;25.586;2023-07-29T04:54:42;6.20;;;4.40;;
80567;SDS011;69922;45.656;25.586;2023-07-29T04:55:49;6.00;;;4.80;;
80567;SDS011;69922;45.656;25.586;2023-07-29T04:56:55;7.50;;;5.10;;
80567;SDS011;69922;45.656;25.586;2023-07-29T04:58:02;6.00;;;4.00;;
80567;SDS011;69922;45.656;25.586;2023-07-29T04:59:09;10.80;;;4.60;;
80567;SDS011;69922;45.656;25.586;2023-07-29T05:00:17;6.00;;;4.30;;
80567;SDS011;69922;45.656;25.586;2023-07-29T05:01:24;8.40;;;4.20;;
80567;SDS011;69922;45.656;25.586;2023-07-29T05:02:30;5.30;;;4.10;;
80567;SDS011;69922;45.656;25.586;2023-07-29T05:03:39;5.70;;;4.20;;
80567;SDS011;69922;45.656;25.586;2023-07-29T05:04:45;6.70;;;4.50;;
80567;SDS011;69922;45.656;25.586;2023-07-29T05:05:51;6.80;;;4.40;;
80567;SDS011;69922;45.656;25.586;2023-07-29T05:07:00;6.80;;;4.60;;
80567;SDS011;69922;45.656;25.586;2023-07-29T05:08:06;6.70;;;4.00;;
80567;SDS011;69922;45.656;25.586;2023-07-29T05:09:16;6.70;;;4.60;;
80567;SDS011;69922;45.656;25.586;2023-07-29T05:10:22;6.80;;;4.10;;
80567;SDS011;69922;45.656;25.586;2023-07-29T05:11:29;6.20;;;4.40;;
80567;SDS011;69922;45.656;25.586;2023-07-29T05:12:35;5.90;;;3.80;;
80567;SDS011;69922;45.656;25.586;2023-07-29T05:13:41;6.50;;;4.00;;
80567;SDS011;69922;45.656;25.586;2023-07-29T05:14:48;7.90;;;4.30;;
80567;SDS011;69922;45.656;25.586;2023-07-29T05:15:54;5.80;;;4.00;;
80567;SDS011;69922;45.656;25.586;2023-07-29T05:17:00;4.80;;;3.90;;
80567;SDS011;69922;45.656;25.586;2023-07-29T05:18:07;7.70;;;4.90;;
80567;SDS011;69922;45.656;25.586;2023-07-29T05:19:13;5.50;;;4.20;;
80567;SDS011;69922;45.656;25.586;2023-07-29T05:20:21;6.30;;;3.90;;
80567;SDS011;69922;45.656;25.586;2023-07-29T05:21:27;5.10;;;3.80;;
80567;SDS011;69922;45.656;25.586;2023-07-29T05:22:34;6.60;;;4.30;;
80567;SDS011;69922;45.656;25.586;2023-07-29T05:23:40;5.60;;;4.30;;
80567;SDS011;69922;45.656;25.586;2023-07-29T05:24:47;4.80;;;3.80;;
80567;SDS011;69922;45.656;25.586;2023-07-29T05:25:53;4.80;;;4.30;;
80567;SDS011;69922;45.656;25.586;2023-07-29T05:26:59;7.10;;;4.90;;
80567;SDS011;69922;45.656;25.586;2023-07-29T05:28:06;9.20;;;5.00;;
80567;SDS011;69922;45.656;25.586;2023-07-29T05:29:12;7.90;;;4.50;;
80567;SDS011;69922;45.656;25.586;2023-07-29T05:30:18;5.30;;;4.30;;
80567;SDS011;69922;45.656;25.586;2023-07-29T05:31:25;6.00;;;4.10;;
80567;SDS011;69922;45.656;25.586;2023-07-29T05:32:32;6.50;;;4.40;;
80567;SDS011;69922;45.656;25.586;2023-07-29T05:33:38;5.80;;;4.10;;
80567;SDS011;69922;45.656;25.586;2023-07-29T05:34:45;7.60;;;4.50;;
80567;SDS011;69922;45.656;25.586;2023-07-29T05:35:51;4.70;;;4.20;;
80567;SDS011;69922;45.656;25.586;2023-07-29T05:36:57;6.50;;;4.00;;
80567;SDS011;69922;45.656;25.586;2023-07-29T05:38:04;9.00;;;4.30;;
80567;SDS011;69922;45.656;25.586;2023-07-29T05:39:12;6.10;;;4.70;;
80567;SDS011;69922;45.656;25.586;2023-07-29T05:40:18;6.50;;;4.40;;
80567;SDS011;69922;45.656;25.586;2023-07-29T05:41:25;7.00;;;4.50;;
80567;SDS011;69922;45.656;25.586;2023-07-29T05:42:33;6.00;;;4.70;;
80567;SDS011;69922;45.656;25.586;2023-07-29T05:43:39;6.40;;;4.10;;
80567;SDS011;69922;45.656;25.586;2023-07-29T05:44:47;7.30;;;3.80;;
80567;SDS011;69922;45.656;25.586;2023-07-29T05:45:53;7.30;;;5.10;;
80567;SDS011;69922;45.656;25.586;2023-07-29T05:46:59;7.20;;;4.70;;
80567;SDS011;69922;45.656;25.586;2023-07-29T05:48:06;5.20;;;4.50;;
80567;SDS011;69922;45.656;25.586;2023-07-29T05:49:12;6.10;;;4.40;;
80567;SDS011;69922;45.656;25.586;2023-07-29T05:50:19;5.40;;;4.10;;
80567;SDS011;69922;45.656;25.586;2023-07-29T05:51:26;5.70;;;3.90;;
80567;SDS011;69922;45.656;25.586;2023-07-29T05:52:32;5.80;;;4.40;;
80567;SDS011;69922;45.656;25.586;2023-07-29T05:53:39;4.70;;;4.00;;
80567;SDS011;69922;45.656;25.586;2023-07-29T05:54:45;6.10;;;4.50;;
80567;SDS011;69922;45.656;25.586;2023-07-29T05:55:51;5.50;;;4.60;;
80567;SDS011;69922;45.656;25.586;2023-07-29T05:56:58;9.20;;;4.90;;
80567;SDS011;69922;45.656;25.586;2023-07-29T05:58:04;6.80;;;4.20;;
80567;SDS011;69922;45.656;25.586;2023-07-29T05:59:10;9.00;;;4.40;;
80567;SDS011;69922;45.656;25.586;2023-07-29T06:00:17;5.90;;;4.10;;
80567;SDS011;69922;45.656;25.586;2023-07-29T06:01:23;6.90;;;4.50;;
80567;SDS011;69922;45.656;25.586;2023-07-29T06:02:30;6.60;;;4.60;;
80567;SDS011;69922;45.656;25.586;2023-07-29T06:03:38;7.70;;;4.50;;
80567;SDS011;69922;45.656;25.586;2023-07-29T06:04:45;6.40;;;4.60;;
80567;SDS011;69922;45.656;25.586;2023-07-29T06:05:52;6.60;;;4.10;;
80567;SDS011;69922;45.656;25.586;2023-07-29T06:06:58;7.60;;;4.80;;
80567;SDS011;69922;45.656;25.586;2023-07-29T06:08:05;7.60;;;5.10;;
80567;SDS011;69922;45.656;25.586;2023-07-29T06:09:15;8.70;;;4.40;;
80567;SDS011;69922;45.656;25.586;2023-07-29T06:10:22;4.80;;;4.10;;
80567;SDS011;69922;45.656;25.586;2023-07-29T06:11:29;4.90;;;4.40;;
80567;SDS011;69922;45.656;25.586;2023-07-29T06:12:35;8.10;;;4.40;;
80567;SDS011;69922;45.656;25.586;2023-07-29T06:13:41;5.80;;;3.90;;
80567;SDS011;69922;45.656;25.586;2023-07-29T06:14:48;4.60;;;3.70;;
80567;SDS011;69922;45.656;25.586;2023-07-29T06:15:54;6.50;;;4.40;;
80567;SDS011;69922;45.656;25.586;2023-07-29T06:17:00;8.80;;;4.60;;
80567;SDS011;69922;45.656;25.586;2023-07-29T06:18:07;5.30;;;3.80;;
80567;SDS011;69922;45.656;25.586;2023-07-29T06:19:13;7.50;;;4.00;;
80567;SDS011;69922;45.656;25.586;2023-07-29T06:20:19;6.40;;;4.30;;
80567;SDS011;69922;45.656;25.586;2023-07-29T06:21:25;6.20;;;4.30;;
80567;SDS011;69922;45.656;25.586;2023-07-29T06:22:32;6.00;;;3.90;;
80567;SDS011;69922;45.656;25.586;2023-07-29T06:23:38;7.40;;;3.90;;
80567;SDS011;69922;45.656;25.586;2023-07-29T06:24:44;7.80;;;4.80;;
80567;SDS011;69922;45.656;25.586;2023-07-29T06:25:50;7.10;;;4.30;;
80567;SDS011;69922;45.656;25.586;2023-07-29T06:26:56;6.60;;;3.90;;
80567;SDS011;69922;45.656;25.586;2023-07-29T06:28:02;9.10;;;4.20;;
80567;SDS011;69922;45.656;25.586;2023-07-29T06:29:09;6.90;;;4.30;;
80567;SDS011;69922;45.656;25.586;2023-07-29T06:30:15;5.80;;;3.80;;
80567;SDS011;69922;45.656;25.586;2023-07-29T06:31:22;4.40;;;4.00;;
80567;SDS011;69922;45.656;25.586;2023-07-29T06:32:29;4.80;;;3.90;;
80567;SDS011;69922;45.656;25.586;2023-07-29T06:33:35;5.90;;;4.00;;
80567;SDS011;69922;45.656;25.586;2023-07-29T06:34:41;7.70;;;4.00;;
80567;SDS011;69922;45.656;25.586;2023-07-29T06:35:47;6.60;;;4.10;;
80567;SDS011;69922;45.656;25.586;2023-07-29T06:36:54;6.10;;;4.00;;
80567;SDS011;69922;45.656;25.586;2023-07-29T06:38:06;4.60;;;3.40;;
80567;SDS011;69922;45.656;25.586;2023-07-29T06:39:13;5.40;;;3.60;;